createdAt,value
2019-05-19T00:00:25.144Z,18.53
2019-05-19T00:00:51.286Z,18.71
2019-05-19T00:01:43.581Z,18.66
2019-05-19T00:02:35.871Z,18.62
2019-05-19T00:03:02.035Z,18.68
2019-05-19T00:03:28.181Z,18.66
2019-05-19T00:04:20.490Z,18.58
2019-05-19T00:04:46.631Z,18.6
2019-05-19T00:05:38.913Z,18.63
2019-05-19T00:06:31.194Z,18.6
2019-05-19T00:06:57.340Z,18.63
2019-05-19T00:07:49.667Z,18.68
2019-05-19T00:09:08.106Z,18.7
2019-05-19T00:10:00.526Z,18.52
2019-05-19T00:10:26.685Z,18.65
2019-05-19T00:11:18.972Z,18.65
2019-05-19T00:12:11.317Z,18.53
2019-05-19T00:12:37.459Z,18.53
2019-05-19T00:13:29.814Z,18.59
2019-05-19T00:14:48.298Z,18.55
2019-05-19T00:15:40.611Z,18.52
2019-05-19T00:16:06.748Z,18.52
2019-05-19T00:16:59.110Z,18.47
2019-05-19T00:17:51.409Z,18.49
2019-05-19T00:18:17.603Z,18.55
2019-05-19T00:19:09.945Z,18.53
2019-05-19T00:20:28.456Z,18.56
2019-05-19T00:21:20.782Z,18.52
2019-05-19T00:21:46.937Z,18.58
2019-05-19T00:22:39.240Z,18.53
2019-05-19T00:23:31.589Z,18.52
2019-05-19T00:23:59.747Z,18.49
2019-05-19T00:24:51.002Z,18.53
2019-05-19T00:25:17.145Z,18.49
2019-05-19T00:26:09.467Z,18.49
2019-05-19T00:27:27.930Z,18.5
2019-05-19T00:28:20.217Z,18.47
2019-05-19T00:28:46.388Z,18.5
2019-05-19T00:29:38.679Z,18.4
2019-05-19T00:30:31.015Z,18.4
2019-05-19T00:30:57.148Z,18.41
2019-05-19T00:31:49.476Z,18.37
2019-05-19T00:33:07.962Z,18.26
2019-05-19T00:34:00.274Z,18.26
2019-05-19T00:34:26.409Z,18.28
2019-05-19T00:35:18.723Z,18.34
2019-05-19T00:36:11.062Z,18.37
2019-05-19T00:36:37.196Z,18.31
2019-05-19T00:37:29.487Z,18.33
2019-05-19T00:38:47.911Z,18.26
2019-05-19T00:39:40.260Z,18.37
2019-05-19T00:40:06.401Z,18.29
2019-05-19T00:40:58.689Z,18.28
2019-05-19T00:41:50.997Z,18.28
2019-05-19T00:42:17.164Z,18.28
2019-05-19T00:43:09.453Z,18.25
2019-05-19T00:44:27.903Z,18.26
2019-05-19T00:45:20.229Z,18.22
2019-05-19T00:45:46.398Z,18.19
2019-05-19T00:46:38.687Z,18.11
2019-05-19T00:47:30.979Z,18.13
2019-05-19T00:47:57.116Z,18.18
2019-05-19T00:48:49.408Z,18.18
2019-05-19T00:50:08.869Z,18.13
2019-05-19T00:51:01.159Z,18.13
2019-05-19T00:51:27.355Z,18.13
2019-05-19T00:52:19.678Z,18.16
2019-05-19T00:53:38.191Z,18.18
2019-05-19T00:54:30.483Z,18.19
2019-05-19T00:54:56.622Z,18.13
2019-05-19T00:55:48.938Z,18.1
2019-05-19T00:56:41.249Z,18.19
2019-05-19T00:57:07.384Z,18.1
2019-05-19T00:57:59.675Z,18.08
2019-05-19T00:59:18.195Z,18.04
2019-05-19T01:00:10.536Z,18.08
2019-05-19T01:00:36.673Z,18.08
2019-05-19T01:01:28.995Z,18.01
2019-05-19T01:02:21.290Z,18.07
2019-05-19T01:02:47.459Z,18.01
2019-05-19T01:03:39.816Z,18.01
2019-05-19T01:04:58.270Z,18.03
2019-05-19T01:05:51.548Z,18.03
2019-05-19T01:06:17.687Z,18.03
2019-05-19T01:07:10.048Z,17.94
2019-05-19T01:08:28.503Z,17.92
2019-05-19T01:09:20.825Z,17.95
2019-05-19T01:09:46.963Z,17.94
2019-05-19T01:10:39.317Z,17.92
2019-05-19T01:11:57.793Z,18
2019-05-19T01:12:50.144Z,18.01
2019-05-19T01:14:08.643Z,18.03
2019-05-19T01:15:00.934Z,18.01
2019-05-19T01:15:27.080Z,18.04
2019-05-19T01:16:19.477Z,18.01
2019-05-19T01:17:37.882Z,18.01
2019-05-19T01:18:30.191Z,17.97
2019-05-19T01:18:56.350Z,18
2019-05-19T01:19:55.773Z,18.01
2019-05-19T01:21:08.107Z,17.97
2019-05-19T01:22:00.395Z,17.98
2019-05-19T01:22:26.592Z,18.07
2019-05-19T01:23:18.921Z,18
2019-05-19T01:24:11.234Z,17.94
2019-05-19T01:24:37.388Z,18
2019-05-19T01:25:29.719Z,18
2019-05-19T01:26:48.181Z,17.95
2019-05-19T01:27:40.502Z,18.03
2019-05-19T01:28:06.651Z,18.03
2019-05-19T01:28:58.952Z,17.95
2019-05-19T01:29:51.240Z,18.04
2019-05-19T01:30:17.378Z,17.95
2019-05-19T01:31:09.664Z,17.94
2019-05-19T01:32:28.126Z,17.9
2019-05-19T01:33:20.413Z,17.87
2019-05-19T01:33:46.561Z,17.87
2019-05-19T01:34:38.852Z,17.89
2019-05-19T01:35:31.167Z,17.85
2019-05-19T01:35:57.305Z,17.78
2019-05-19T01:36:49.624Z,17.87
2019-05-19T01:38:08.170Z,17.86
2019-05-19T01:39:00.487Z,17.87
2019-05-19T01:39:26.653Z,17.85
2019-05-19T01:40:19.033Z,17.78
2019-05-19T01:41:11.327Z,17.86
2019-05-19T01:41:37.510Z,17.74
2019-05-19T01:42:29.831Z,17.72
2019-05-19T01:43:48.265Z,17.79
2019-05-19T01:44:40.582Z,17.76
2019-05-19T01:45:06.747Z,17.82
2019-05-19T01:45:59.030Z,17.85
2019-05-19T01:46:51.369Z,17.82
2019-05-19T01:47:17.506Z,17.79
2019-05-19T01:48:09.823Z,17.78
2019-05-19T01:49:28.310Z,17.63
2019-05-19T01:50:49.760Z,17.59
2019-05-19T01:52:08.210Z,17.71
2019-05-19T01:53:00.595Z,17.65
2019-05-19T01:53:26.737Z,17.67
2019-05-19T01:54:19.075Z,17.68
2019-05-19T01:55:11.419Z,17.59
2019-05-19T01:55:37.558Z,17.64
2019-05-19T01:56:29.845Z,17.56
2019-05-19T01:57:48.338Z,17.65
2019-05-19T01:58:40.631Z,17.56
2019-05-19T01:59:06.770Z,17.6
2019-05-19T01:59:59.109Z,17.57
2019-05-19T02:00:51.409Z,17.49
2019-05-19T02:01:17.547Z,17.6
2019-05-19T02:02:09.838Z,17.51
2019-05-19T02:03:28.366Z,17.59
2019-05-19T02:04:20.653Z,17.64
2019-05-19T02:04:46.840Z,17.57
2019-05-19T02:05:39.126Z,17.6
2019-05-19T02:06:31.413Z,17.59
2019-05-19T02:06:57.553Z,17.48
2019-05-19T02:07:49.922Z,17.52
2019-05-19T02:09:08.374Z,17.44
2019-05-19T02:10:00.686Z,17.51
2019-05-19T02:10:26.823Z,17.56
2019-05-19T02:11:19.131Z,17.46
2019-05-19T02:12:11.504Z,17.54
2019-05-19T02:12:37.661Z,17.45
2019-05-19T02:13:29.998Z,17.46
2019-05-19T02:14:48.453Z,17.44
2019-05-19T02:15:40.765Z,17.44
2019-05-19T02:16:06.913Z,17.48
2019-05-19T02:16:59.228Z,17.39
2019-05-19T02:17:51.546Z,17.41
2019-05-19T02:18:17.678Z,17.48
2019-05-19T02:19:09.965Z,17.31
2019-05-19T02:20:32.999Z,17.36
2019-05-19T02:20:56.563Z,17.42
2019-05-19T02:21:48.902Z,17.38
2019-05-19T02:22:41.210Z,17.41
2019-05-19T02:23:07.369Z,17.39
2019-05-19T02:23:59.689Z,17.33
2019-05-19T02:25:18.185Z,17.3
2019-05-19T02:26:10.469Z,17.3
2019-05-19T02:26:36.606Z,17.29
2019-05-19T02:27:28.955Z,17.26
2019-05-19T02:28:21.336Z,17.26
2019-05-19T02:28:47.498Z,17.26
2019-05-19T02:29:39.793Z,17.26
2019-05-19T02:30:58.341Z,17.24
2019-05-19T02:31:50.671Z,17.23
2019-05-19T02:32:16.844Z,17.16
2019-05-19T02:33:09.200Z,17.2
2019-05-19T02:34:01.557Z,17.2
2019-05-19T02:34:27.727Z,17.14
2019-05-19T02:35:20.130Z,17.15
2019-05-19T02:36:38.595Z,17.11
2019-05-19T02:37:30.885Z,16.99
2019-05-19T02:37:57.100Z,17.01
2019-05-19T02:38:49.393Z,17.01
2019-05-19T02:40:07.869Z,16.97
2019-05-19T02:41:00.214Z,17.05
2019-05-19T02:41:26.354Z,17.01
2019-05-19T02:42:18.714Z,16.9
2019-05-19T02:43:11.018Z,16.89
2019-05-19T02:43:37.160Z,16.89
2019-05-19T02:44:29.547Z,16.86
2019-05-19T02:45:48.009Z,16.83
2019-05-19T02:46:40.322Z,16.86
2019-05-19T02:47:06.485Z,16.83
2019-05-19T02:47:58.834Z,16.86
2019-05-19T02:48:51.254Z,16.76
2019-05-19T02:49:17.452Z,16.76
2019-05-19T02:50:09.745Z,16.81
2019-05-19T02:51:30.153Z,16.83
2019-05-19T02:52:48.726Z,16.89
2019-05-19T02:53:41.026Z,16.84
2019-05-19T02:54:07.198Z,16.87
2019-05-19T02:54:59.535Z,16.84
2019-05-19T02:56:18.048Z,16.84
2019-05-19T02:57:10.335Z,16.78
2019-05-19T02:57:36.522Z,16.74
2019-05-19T02:58:28.828Z,16.81
2019-05-19T02:59:21.152Z,16.79
2019-05-19T02:59:47.315Z,16.81
2019-05-19T03:00:39.647Z,16.89
2019-05-19T03:01:58.097Z,16.78
2019-05-19T03:02:50.463Z,16.83
2019-05-19T03:03:16.621Z,16.83
2019-05-19T03:04:08.937Z,16.81
2019-05-19T03:05:01.270Z,16.81
2019-05-19T03:05:27.479Z,16.86
2019-05-19T03:06:19.865Z,16.87
2019-05-19T03:07:38.253Z,16.79
2019-05-19T03:08:30.527Z,16.79
2019-05-19T03:08:56.687Z,16.84
2019-05-19T03:09:48.975Z,16.79
2019-05-19T03:10:41.310Z,16.78
2019-05-19T03:11:07.453Z,16.83
2019-05-19T03:11:59.768Z,16.78
2019-05-19T03:13:18.277Z,16.78
2019-05-19T03:14:10.596Z,16.76
2019-05-19T03:14:36.769Z,16.76
2019-05-19T03:15:29.053Z,16.78
2019-05-19T03:16:21.395Z,16.78
2019-05-19T03:16:47.559Z,16.78
2019-05-19T03:17:39.847Z,16.81
2019-05-19T03:18:58.334Z,16.76
2019-05-19T03:19:50.660Z,16.86
2019-05-19T03:20:16.835Z,16.86
2019-05-19T03:21:11.744Z,16.81
2019-05-19T03:22:28.665Z,16.79
2019-05-19T03:23:20.999Z,16.84
2019-05-19T03:23:47.164Z,16.79
2019-05-19T03:24:39.559Z,16.81
2019-05-19T03:25:58.091Z,16.84
2019-05-19T03:26:50.432Z,16.76
2019-05-19T03:27:16.643Z,16.83
2019-05-19T03:28:08.949Z,16.75
2019-05-19T03:29:01.257Z,16.72
2019-05-19T03:29:27.442Z,16.78
2019-05-19T03:30:19.810Z,16.74
2019-05-19T03:31:38.315Z,16.64
2019-05-19T03:32:57.885Z,16.61
2019-05-19T03:33:50.207Z,16.69
2019-05-19T03:34:16.385Z,16.72
2019-05-19T03:35:08.819Z,16.66
2019-05-19T03:36:01.218Z,16.72
2019-05-19T03:36:27.359Z,16.68
2019-05-19T03:37:19.681Z,16.56
2019-05-19T03:38:38.216Z,16.57
2019-05-19T03:39:30.572Z,16.46
2019-05-19T03:39:56.717Z,16.47
2019-05-19T03:40:49.061Z,16.56
2019-05-19T03:41:41.365Z,16.5
2019-05-19T03:42:10.314Z,16.46
2019-05-19T03:42:59.855Z,16.43
2019-05-19T03:44:18.374Z,16.51
2019-05-19T03:45:10.731Z,16.41
2019-05-19T03:45:36.902Z,16.49
2019-05-19T03:46:29.214Z,16.43
2019-05-19T03:47:21.552Z,16.51
2019-05-19T03:47:47.692Z,16.49
2019-05-19T03:48:40.043Z,16.38
2019-05-19T03:49:58.490Z,16.38
2019-05-19T03:50:50.776Z,16.51
2019-05-19T03:51:29.837Z,16.5
2019-05-19T03:52:10.285Z,16.5
2019-05-19T03:52:36.448Z,16.5
2019-05-19T03:53:28.821Z,16.53
2019-05-19T03:54:21.225Z,16.5
2019-05-19T03:54:47.446Z,16.56
2019-05-19T03:55:39.815Z,16.47
2019-05-19T03:56:58.352Z,16.51
2019-05-19T03:57:50.634Z,16.56
2019-05-19T03:58:16.802Z,16.51
2019-05-19T03:59:09.151Z,16.53
2019-05-19T04:00:01.529Z,16.61
2019-05-19T04:00:27.697Z,16.56
2019-05-19T04:01:19.983Z,16.57
2019-05-19T04:02:38.432Z,16.6
2019-05-19T04:03:30.790Z,16.61
2019-05-19T04:03:57.021Z,16.72
2019-05-19T04:04:49.367Z,16.66
2019-05-19T04:06:07.934Z,16.71
2019-05-19T04:07:00.263Z,16.76
2019-05-19T04:07:26.397Z,16.69
2019-05-19T04:08:18.751Z,16.78
2019-05-19T04:09:11.038Z,16.83
2019-05-19T04:09:37.271Z,16.83
2019-05-19T04:10:29.543Z,16.81
2019-05-19T04:11:48.023Z,16.79
2019-05-19T04:12:40.310Z,16.89
2019-05-19T04:13:06.451Z,16.86
2019-05-19T04:13:58.786Z,16.84
2019-05-19T04:14:51.126Z,16.84
2019-05-19T04:15:17.275Z,16.81
2019-05-19T04:16:09.582Z,16.86
2019-05-19T04:17:28.038Z,16.91
2019-05-19T04:18:20.394Z,16.9
2019-05-19T04:18:46.595Z,16.9
2019-05-19T04:19:38.888Z,16.96
2019-05-19T04:20:31.241Z,16.9
2019-05-19T04:20:57.374Z,16.86
2019-05-19T04:21:50.698Z,16.89
2019-05-19T04:22:16.861Z,16.81
2019-05-19T04:23:09.164Z,16.78
2019-05-19T04:24:01.479Z,16.78
2019-05-19T04:24:27.637Z,16.84
2019-05-19T04:25:19.952Z,16.83
2019-05-19T04:26:38.445Z,16.9
2019-05-19T04:27:30.755Z,16.89
2019-05-19T04:27:56.901Z,16.93
2019-05-19T04:28:49.279Z,16.87
2019-05-19T04:30:08.787Z,16.91
2019-05-19T04:31:01.111Z,16.97
2019-05-19T04:31:27.238Z,17.06
2019-05-19T04:32:19.527Z,16.99
2019-05-19T04:33:37.985Z,17.06
2019-05-19T04:34:30.298Z,17.08
2019-05-19T04:34:56.465Z,17.11
2019-05-19T04:35:48.840Z,17.19
2019-05-19T04:36:41.123Z,17.22
2019-05-19T04:37:07.286Z,17.22
2019-05-19T04:37:59.606Z,17.14
2019-05-19T04:39:18.128Z,17.27
2019-05-19T04:40:10.476Z,17.33
2019-05-19T04:40:36.652Z,17.29
2019-05-19T04:41:28.971Z,17.3
2019-05-19T04:42:48.439Z,17.26
2019-05-19T04:43:40.871Z,17.26
2019-05-19T04:44:07.008Z,17.26
2019-05-19T04:44:59.386Z,17.19
2019-05-19T04:46:18.223Z,17.24
2019-05-19T04:47:10.649Z,17.26
2019-05-19T04:47:36.807Z,17.29
2019-05-19T04:48:30.130Z,17.31
2019-05-19T04:49:48.677Z,17.38
2019-05-19T04:50:41.094Z,17.33
2019-05-19T04:51:07.232Z,17.41
2019-05-19T04:52:06.386Z,17.48
2019-05-19T04:52:27.751Z,17.46
2019-05-19T04:53:20.082Z,17.44
2019-05-19T04:53:47.522Z,17.46
2019-05-19T04:54:39.970Z,17.49
2019-05-19T04:55:58.960Z,17.6
2019-05-19T04:56:51.486Z,17.64
2019-05-19T04:57:17.663Z,17.63
2019-05-19T04:58:09.942Z,17.64
2019-05-19T04:59:28.509Z,17.78
2019-05-19T05:00:20.877Z,17.86
2019-05-19T05:00:47.096Z,17.76
2019-05-19T05:01:39.437Z,17.86
2019-05-19T05:02:57.925Z,17.85
2019-05-19T05:03:50.242Z,17.9
2019-05-19T05:04:16.420Z,17.85
2019-05-19T05:05:09.781Z,17.85
2019-05-19T05:06:28.262Z,17.92
2019-05-19T05:07:20.586Z,17.83
2019-05-19T05:07:46.746Z,17.87
2019-05-19T05:08:39.140Z,17.8
2019-05-19T05:09:31.466Z,17.78
2019-05-19T05:09:57.631Z,17.86
2019-05-19T05:10:49.950Z,18
2019-05-19T05:12:08.458Z,18.08
2019-05-19T05:13:00.749Z,18.13
2019-05-19T05:13:26.914Z,18.13
2019-05-19T05:14:19.205Z,18.2
2019-05-19T05:15:11.530Z,18.26
2019-05-19T05:15:37.717Z,18.31
2019-05-19T05:16:30.020Z,18.37
2019-05-19T05:17:48.497Z,18.44
2019-05-19T05:18:40.800Z,18.47
2019-05-19T05:19:06.967Z,18.5
2019-05-19T05:19:59.284Z,18.49
2019-05-19T05:21:17.767Z,18.65
2019-05-19T05:22:21.524Z,18.62
2019-05-19T05:22:37.273Z,18.52
2019-05-19T05:23:29.562Z,18.52
2019-05-19T05:24:49.017Z,18.53
2019-05-19T05:25:41.362Z,18.53
2019-05-19T05:26:07.515Z,18.58
2019-05-19T05:26:59.856Z,18.55
2019-05-19T05:28:18.301Z,18.77
2019-05-19T05:29:10.639Z,18.77
2019-05-19T05:29:36.778Z,18.71
2019-05-19T05:30:29.105Z,18.86
2019-05-19T05:31:21.402Z,18.88
2019-05-19T05:31:47.572Z,18.99
2019-05-19T05:32:39.864Z,18.83
2019-05-19T05:33:58.384Z,18.84
2019-05-19T05:34:50.674Z,19
2019-05-19T05:35:16.813Z,19.04
2019-05-19T05:36:09.103Z,19.07
2019-05-19T05:37:01.397Z,19.09
2019-05-19T05:37:27.565Z,19.12
2019-05-19T05:38:19.966Z,19.18
2019-05-19T05:39:38.397Z,19.12
2019-05-19T05:40:30.769Z,19.16
2019-05-19T05:40:56.906Z,19.22
2019-05-19T05:41:49.189Z,19.11
2019-05-19T05:43:08.628Z,19.26
2019-05-19T05:44:00.942Z,19.29
2019-05-19T05:44:27.083Z,19.36
2019-05-19T05:45:19.400Z,19.34
2019-05-19T05:46:37.859Z,19.48
2019-05-19T05:47:30.145Z,19.51
2019-05-19T05:48:48.582Z,19.56
2019-05-19T05:49:40.880Z,19.47
2019-05-19T05:50:07.017Z,19.55
2019-05-19T05:50:59.339Z,19.48
2019-05-19T05:52:17.810Z,19.51
2019-05-19T05:53:10.176Z,19.62
2019-05-19T05:54:28.604Z,19.55
2019-05-19T05:55:20.891Z,19.63
2019-05-19T05:55:47.087Z,19.67
2019-05-19T05:56:39.414Z,19.73
2019-05-19T05:57:58.005Z,19.69
2019-05-19T05:58:50.313Z,19.82
2019-05-19T05:59:16.448Z,19.86
2019-05-19T06:00:08.809Z,19.95
2019-05-19T06:01:01.143Z,19.92
2019-05-19T06:01:27.283Z,20
2019-05-19T06:02:19.606Z,20.03
2019-05-19T06:03:38.028Z,19.94
2019-05-19T06:04:30.322Z,20.04
2019-05-19T06:04:56.488Z,20.07
2019-05-19T06:05:48.815Z,20.1
2019-05-19T06:06:41.106Z,20.16
2019-05-19T06:07:07.251Z,20.22
2019-05-19T06:07:59.578Z,20.18
2019-05-19T06:09:18.005Z,20.1
2019-05-19T06:10:10.296Z,20.19
2019-05-19T06:10:36.451Z,20.22
2019-05-19T06:11:28.788Z,20.29
2019-05-19T06:12:21.117Z,20.32
2019-05-19T06:12:47.260Z,20.29
2019-05-19T06:13:39.592Z,20.26
2019-05-19T06:14:58.117Z,20.32
2019-05-19T06:15:50.462Z,20.34
2019-05-19T06:16:16.628Z,20.44
2019-05-19T06:17:08.966Z,20.47
2019-05-19T06:18:01.287Z,20.47
2019-05-19T06:18:27.456Z,20.55
2019-05-19T06:19:19.777Z,20.67
2019-05-19T06:20:38.309Z,20.75
2019-05-19T06:21:30.596Z,20.7
2019-05-19T06:21:56.774Z,20.69
2019-05-19T06:22:56.227Z,20.85
2019-05-19T06:24:08.593Z,20.9
2019-05-19T06:25:00.892Z,20.9
2019-05-19T06:25:27.129Z,21
2019-05-19T06:26:19.488Z,21.07
2019-05-19T06:27:37.943Z,21.07
2019-05-19T06:28:30.237Z,21.03
2019-05-19T06:28:56.357Z,21.03
2019-05-19T06:29:48.703Z,21.03
2019-05-19T06:30:41.039Z,21.07
2019-05-19T06:31:07.231Z,21.15
2019-05-19T06:31:59.549Z,21.11
2019-05-19T06:33:18.025Z,21.11
2019-05-19T06:34:10.324Z,21.11
2019-05-19T06:34:36.493Z,21.18
2019-05-19T06:35:28.841Z,21.32
2019-05-19T06:36:21.120Z,21.33
2019-05-19T06:36:47.280Z,21.35
2019-05-19T06:37:39.596Z,21.22
2019-05-19T06:38:58.109Z,21.14
2019-05-19T06:39:50.429Z,21.14
2019-05-19T06:40:16.579Z,21.11
2019-05-19T06:41:08.894Z,21.15
2019-05-19T06:42:01.215Z,21.15
2019-05-19T06:42:27.359Z,21.07
2019-05-19T06:43:19.668Z,21.22
2019-05-19T06:44:39.095Z,21.25
2019-05-19T06:45:31.467Z,21.39
2019-05-19T06:45:57.605Z,21.33
2019-05-19T06:46:49.932Z,21.45
2019-05-19T06:48:08.410Z,21.54
2019-05-19T06:49:00.754Z,21.55
2019-05-19T06:49:26.896Z,21.55
2019-05-19T06:50:19.237Z,21.61
2019-05-19T06:51:37.754Z,21.92
2019-05-19T06:52:30.051Z,21.95
2019-05-19T06:53:49.554Z,22.1
2019-05-19T06:55:08.074Z,22.23
2019-05-19T06:56:00.451Z,22.41
2019-05-19T06:56:26.592Z,22.44
2019-05-19T06:57:18.948Z,22.5
2019-05-19T06:58:11.246Z,22.54
2019-05-19T06:58:37.387Z,22.55
2019-05-19T06:59:29.696Z,22.59
2019-05-19T07:00:48.134Z,22.51
2019-05-19T07:01:40.569Z,22.5
2019-05-19T07:02:06.732Z,22.65
2019-05-19T07:02:59.075Z,22.5
2019-05-19T07:03:51.370Z,22.47
2019-05-19T07:04:17.513Z,22.6
2019-05-19T07:05:09.804Z,22.69
2019-05-19T07:06:28.320Z,22.72
2019-05-19T07:07:20.796Z,22.88
2019-05-19T07:07:46.966Z,22.83
2019-05-19T07:08:39.311Z,22.9
2019-05-19T07:09:58.943Z,22.63
2019-05-19T07:10:51.319Z,22.59
2019-05-19T07:11:17.470Z,22.66
2019-05-19T07:12:09.926Z,22.6
2019-05-19T07:13:28.422Z,22.54
2019-05-19T07:14:20.744Z,22.51
2019-05-19T07:14:46.887Z,22.54
2019-05-19T07:15:39.228Z,22.45
2019-05-19T07:16:31.584Z,22.43
2019-05-19T07:16:57.741Z,22.33
2019-05-19T07:17:50.120Z,22.35
2019-05-19T07:19:08.639Z,22.17
2019-05-19T07:20:00.960Z,22.15
2019-05-19T07:20:27.102Z,22.22
2019-05-19T07:21:19.395Z,22.28
2019-05-19T07:22:37.953Z,22.33
2019-05-19T07:23:31.271Z,22.35
2019-05-19T07:23:57.403Z,22.44
2019-05-19T07:24:49.698Z,22.39
2019-05-19T07:26:08.190Z,22.15
2019-05-19T07:27:00.517Z,22.18
2019-05-19T07:27:26.694Z,22.13
2019-05-19T07:28:19.038Z,22.33
2019-05-19T07:29:11.399Z,22.47
2019-05-19T07:29:37.538Z,22.54
2019-05-19T07:30:29.863Z,22.53
2019-05-19T07:31:48.422Z,22.63
2019-05-19T07:32:40.767Z,22.62
2019-05-19T07:33:07.050Z,22.69
2019-05-19T07:33:59.358Z,22.78
2019-05-19T07:35:17.856Z,22.96
2019-05-19T07:36:10.147Z,23.09
2019-05-19T07:37:28.657Z,23.09
2019-05-19T07:38:21.048Z,23.18
2019-05-19T07:38:47.244Z,23.23
2019-05-19T07:39:39.582Z,23.34
2019-05-19T07:40:58.206Z,23.4
2019-05-19T07:41:50.731Z,23.5
2019-05-19T07:42:16.897Z,23.44
2019-05-19T07:43:09.227Z,23.31
2019-05-19T07:44:01.555Z,23.23
2019-05-19T07:44:27.669Z,23.23
2019-05-19T07:45:20.293Z,23.15
2019-05-19T07:45:46.447Z,23.13
2019-05-19T07:46:38.784Z,23.2
2019-05-19T07:47:31.140Z,23.4
2019-05-19T07:47:57.448Z,23.48
2019-05-19T07:48:49.849Z,23.31
2019-05-19T07:50:08.323Z,23.08
2019-05-19T07:51:00.674Z,23.06
2019-05-19T07:51:26.814Z,23.03
2019-05-19T07:52:19.111Z,22.87
2019-05-19T07:53:11.478Z,22.94
2019-05-19T07:53:42.747Z,22.94
2019-05-19T07:54:30.897Z,22.94
2019-05-19T07:54:57.043Z,22.94
2019-05-19T07:55:49.368Z,22.87
2019-05-19T07:57:07.864Z,23.06
2019-05-19T07:58:00.181Z,22.96
2019-05-19T07:58:26.384Z,22.93
2019-05-19T07:59:18.748Z,22.98
2019-05-19T08:00:11.101Z,22.83
2019-05-19T08:00:37.257Z,22.85
2019-05-19T08:01:29.590Z,22.66
2019-05-19T08:02:48.240Z,22.91
2019-05-19T08:03:40.616Z,23.02
2019-05-19T08:04:06.745Z,23.06
2019-05-19T08:04:59.079Z,23.13
2019-05-19T08:05:51.465Z,23.39
2019-05-19T08:06:18.126Z,23.58
2019-05-19T08:07:10.458Z,23.88
2019-05-19T08:07:36.666Z,24.01
2019-05-19T08:08:29.074Z,24.14
2019-05-19T08:09:21.490Z,24.23
2019-05-19T08:09:47.693Z,24.45
2019-05-19T08:10:40.072Z,24.18
2019-05-19T08:11:58.527Z,24.78
2019-05-19T08:12:50.870Z,25.03
2019-05-19T08:13:17.043Z,25.25
2019-05-19T08:14:09.433Z,25.21
2019-05-19T08:15:27.973Z,25.77
2019-05-19T08:16:20.279Z,25.85
2019-05-19T08:16:46.448Z,25.96
2019-05-19T08:17:38.813Z,26.31
2019-05-19T08:18:31.158Z,26.51
2019-05-19T08:18:57.350Z,26.53
2019-05-19T08:19:49.834Z,26.89
2019-05-19T08:21:08.437Z,27.49
2019-05-19T08:22:00.757Z,27.75
2019-05-19T08:22:26.913Z,28.05
2019-05-19T08:23:20.299Z,28.72
2019-05-19T08:23:59.125Z,28.86
2019-05-19T08:24:39.760Z,29.16
2019-05-19T08:25:07.150Z,29.27
2019-05-19T08:25:59.502Z,29.35
2019-05-19T08:27:18.014Z,29.13
2019-05-19T08:28:11.340Z,28.97
2019-05-19T08:28:37.514Z,28.98
2019-05-19T08:29:29.839Z,28.76
2019-05-19T08:30:48.358Z,28.51
2019-05-19T08:31:40.747Z,28.38
2019-05-19T08:32:06.934Z,28.38
2019-05-19T08:32:59.262Z,28.19
2019-05-19T08:34:18.309Z,27.8
2019-05-19T08:35:10.604Z,28.23
2019-05-19T08:35:36.754Z,28.14
2019-05-19T08:36:29.065Z,28.37
2019-05-19T08:37:21.427Z,28.29
2019-05-19T08:37:47.573Z,28.64
2019-05-19T08:38:39.883Z,29.31
2019-05-19T08:39:58.367Z,29.63
2019-05-19T08:40:50.707Z,29.63
2019-05-19T08:41:16.924Z,29.88
2019-05-19T08:42:09.322Z,30.28
2019-05-19T08:43:27.859Z,30.66
2019-05-19T08:44:20.191Z,30.99
2019-05-19T08:45:38.689Z,31.47
2019-05-19T08:46:30.997Z,31.54
2019-05-19T08:46:57.143Z,31.8
2019-05-19T08:47:49.450Z,32.14
2019-05-19T08:49:08.988Z,32.22
2019-05-19T08:50:01.415Z,32.26
2019-05-19T08:50:27.622Z,32.15
2019-05-19T08:51:19.949Z,31.89
2019-05-19T08:52:38.492Z,31.25
2019-05-19T08:53:30.867Z,31
2019-05-19T08:53:57.141Z,30.78
2019-05-19T08:54:50.386Z,30.34
2019-05-19T08:55:16.578Z,30.19
2019-05-19T08:56:08.985Z,29.41
2019-05-19T08:57:01.364Z,29.23
2019-05-19T08:57:27.541Z,29.13
2019-05-19T08:58:20.014Z,29.05
2019-05-19T08:59:38.581Z,28.67
2019-05-19T09:00:34.208Z,28.81
2019-05-19T09:00:57.122Z,28.75
2019-05-19T09:01:49.419Z,28.91
2019-05-19T09:03:07.914Z,29.13
2019-05-19T09:04:00.246Z,28.76
2019-05-19T09:04:26.425Z,28.82
2019-05-19T09:05:18.785Z,29.04
2019-05-19T09:06:11.144Z,29.08
2019-05-19T09:06:37.288Z,28.79
2019-05-19T09:07:29.700Z,29.04
2019-05-19T09:08:48.385Z,29.61
2019-05-19T09:09:40.716Z,30.13
2019-05-19T09:10:06.909Z,30.51
2019-05-19T09:10:59.205Z,30.9
2019-05-19T09:11:51.557Z,31.22
2019-05-19T09:12:17.712Z,31.27
2019-05-19T09:13:10.018Z,31.17
2019-05-19T09:14:28.473Z,32.15
2019-05-19T09:15:20.802Z,32.52
2019-05-19T09:15:46.940Z,32.48
2019-05-19T09:16:39.260Z,32.29
2019-05-19T09:17:57.784Z,33.08
2019-05-19T09:18:50.084Z,33.08
2019-05-19T09:20:08.586Z,32.8
2019-05-19T09:21:00.925Z,32.65
2019-05-19T09:21:27.217Z,32.83
2019-05-19T09:22:19.507Z,33.36
2019-05-19T09:23:37.976Z,33.71
2019-05-19T09:24:31.264Z,33.58
2019-05-19T09:24:58.313Z,33.67
2019-05-19T09:25:50.639Z,33.49
2019-05-19T09:26:16.778Z,33.49
2019-05-19T09:27:09.149Z,33.59
2019-05-19T09:28:01.479Z,33.5
2019-05-19T09:28:27.624Z,33.42
2019-05-19T09:29:19.941Z,33.69
2019-05-19T09:30:38.407Z,34.05
2019-05-19T09:31:30.734Z,34.29
2019-05-19T09:31:57.259Z,34.5
2019-05-19T09:32:49.594Z,34.06
2019-05-19T09:34:08.103Z,34.3
2019-05-19T09:35:00.417Z,34.61
2019-05-19T09:35:26.563Z,34.64
2019-05-19T09:36:18.899Z,33.89
2019-05-19T09:37:11.210Z,33.4
2019-05-19T09:37:37.364Z,33.11
2019-05-19T09:38:29.722Z,32.95
2019-05-19T09:39:48.180Z,32.55
2019-05-19T09:40:40.529Z,32.96
2019-05-19T09:41:06.718Z,33.01
2019-05-19T09:41:59.106Z,32.87
2019-05-19T09:42:51.440Z,32.21
2019-05-19T09:43:17.590Z,32.22
2019-05-19T09:44:09.904Z,32.64
2019-05-19T09:45:28.411Z,33.05
2019-05-19T09:46:20.672Z,33.08
2019-05-19T09:46:46.817Z,33.43
2019-05-19T09:47:39.149Z,34.02
2019-05-19T09:48:31.467Z,34.47
2019-05-19T09:48:57.646Z,34.85
2019-05-19T09:49:49.938Z,35.04
2019-05-19T09:51:08.437Z,35.46
2019-05-19T09:52:00.859Z,35.71
2019-05-19T09:52:27.013Z,35.8
2019-05-19T09:53:19.339Z,35.86
2019-05-19T09:54:45.036Z,35.98
2019-05-19T09:55:30.220Z,36.18
2019-05-19T09:55:56.362Z,36.18
2019-05-19T09:56:48.699Z,36.35
2019-05-19T09:57:41.004Z,36.28
2019-05-19T09:58:07.183Z,36.21
2019-05-19T09:58:59.569Z,36.72
2019-05-19T10:00:18.076Z,36.77
2019-05-19T10:01:10.384Z,36.62
2019-05-19T10:01:36.540Z,36.59
2019-05-19T10:02:28.907Z,36.58
2019-05-19T10:03:21.231Z,36.54
2019-05-19T10:03:47.378Z,36.36
2019-05-19T10:04:39.750Z,36.45
2019-05-19T10:05:58.279Z,36.39
2019-05-19T10:06:50.746Z,36.36
2019-05-19T10:07:17.009Z,36.39
2019-05-19T10:08:09.313Z,36.28
2019-05-19T10:09:27.769Z,36.16
2019-05-19T10:10:20.158Z,36.16
2019-05-19T10:11:38.656Z,36.31
2019-05-19T10:12:30.993Z,36.42
2019-05-19T10:12:57.135Z,36.3
2019-05-19T10:13:49.439Z,35.9
2019-05-19T10:15:07.898Z,35
2019-05-19T10:16:00.240Z,34.17
2019-05-19T10:16:26.380Z,33.95
2019-05-19T10:17:18.708Z,33.42
2019-05-19T10:18:11.047Z,33.05
2019-05-19T10:18:37.193Z,32.87
2019-05-19T10:19:29.504Z,32.09
2019-05-19T10:20:50.375Z,32.09
2019-05-19T10:21:41.333Z,31.76
2019-05-19T10:22:07.509Z,31.73
2019-05-19T10:22:59.822Z,32.07
2019-05-19T10:24:19.625Z,31.49
2019-05-19T10:24:59.605Z,31.69
2019-05-19T10:26:10.705Z,32.27
2019-05-19T10:26:38.080Z,32.59
2019-05-19T10:27:58.817Z,33.08
2019-05-19T10:29:19.759Z,33.22
2019-05-19T10:29:47.126Z,33.57
2019-05-19T10:30:39.815Z,33.55
2019-05-19T10:31:58.836Z,33.58
2019-05-19T10:32:51.459Z,33.43
2019-05-19T10:33:18.674Z,32.97
2019-05-19T10:34:10.994Z,33.05
2019-05-19T10:34:37.157Z,32.97
2019-05-19T10:35:29.533Z,32.96
2019-05-19T10:36:48.058Z,33.42
2019-05-19T10:37:40.418Z,33.34
2019-05-19T10:38:06.564Z,33.07
2019-05-19T10:38:58.927Z,32.82
2019-05-19T10:39:51.259Z,32.64
2019-05-19T10:40:17.455Z,32.33
2019-05-19T10:41:09.821Z,32.45
2019-05-19T10:42:28.301Z,32.03
2019-05-19T10:43:20.613Z,31.93
2019-05-19T10:43:46.752Z,31.99